sensor_id;sensor_type;location;lat;lon;timestamp;pressure;altitude;pressure_sealevel;temperature;humidity
74913;BME280;63878;55.624;37.304;2024-01-16T00:04:29;96582.22;;;-4.86;78.70
74913;BME280;63878;55.624;37.304;2024-01-16T00:14:30;96593.66;;;-4.91;79.65
74913;BME280;63878;55.624;37.304;2024-01-16T00:24:31;96583.34;;;-4.79;78.40
74913;BME280;63878;55.624;37.304;2024-01-16T00:34:31;96592.66;;;-4.67;79.00
74913;BME280;63878;55.624;37.304;2024-01-16T00:44:32;96585.03;;;-4.56;79.07
74913;BME280;63878;55.624;37.304;2024-01-16T00:54:32;96575.94;;;-4.93;78.62
74913;BME280;63878;55.624;37.304;2024-01-16T01:04:33;96573.03;;;-4.88;78.33
74913;BME280;63878;55.624;37.304;2024-01-16T01:14:33;96572.94;;;-4.87;78.64
74913;BME280;63878;55.624;37.304;2024-01-16T01:24:34;96573.84;;;-4.99;78.02
74913;BME280;63878;55.624;37.304;2024-01-16T01:34:34;96574.19;;;-4.92;78.21
74913;BME280;63878;55.624;37.304;2024-01-16T01:44:35;96577.47;;;-4.68;77.68
74913;BME280;63878;55.624;37.304;2024-01-16T01:54:36;96584.66;;;-4.73;77.26
74913;BME280;63878;55.624;37.304;2024-01-16T02:04:38;96565.16;;;-4.85;77.20
74913;BME280;63878;55.624;37.304;2024-01-16T02:14:40;96578.25;;;-4.79;77.40
74913;BME280;63878;55.624;37.304;2024-01-16T02:24:40;96569.00;;;-4.69;77.18
74913;BME280;63878;55.624;37.304;2024-01-16T02:34:41;96584.31;;;-4.58;76.53
74913;BME280;63878;55.624;37.304;2024-01-16T02:44:42;96588.94;;;-4.63;75.90
74913;BME280;63878;55.624;37.304;2024-01-16T02:54:42;96588.09;;;-4.85;76.58
74913;BME280;63878;55.624;37.304;2024-01-16T03:04:43;96609.00;;;-4.69;76.96
74913;BME280;63878;55.624;37.304;2024-01-16T03:14:45;96591.84;;;-4.67;77.48
74913;BME280;63878;55.624;37.304;2024-01-16T03:24:46;96597.28;;;-4.72;76.49
74913;BME280;63878;55.624;37.304;2024-01-16T03:34:46;96596.16;;;-4.68;76.24
74913;BME280;63878;55.624;37.304;2024-01-16T03:44:47;96592.63;;;-4.89;76.64
74913;BME280;63878;55.624;37.304;2024-01-16T03:54:47;96594.34;;;-5.00;77.68
74913;BME280;63878;55.624;37.304;2024-01-16T04:04:48;96586.28;;;-4.83;77.09
74913;BME280;63878;55.624;37.304;2024-01-16T04:14:49;96583.56;;;-4.93;76.73
74913;BME280;63878;55.624;37.304;2024-01-16T04:24:49;96593.22;;;-4.85;75.43
74913;BME280;63878;55.624;37.304;2024-01-16T04:34:50;96601.09;;;-4.88;75.45
74913;BME280;63878;55.624;37.304;2024-01-16T04:44:50;96611.91;;;-5.19;76.06
74913;BME280;63878;55.624;37.304;2024-01-16T04:54:51;96619.19;;;-4.91;75.36
74913;BME280;63878;55.624;37.304;2024-01-16T05:04:51;96618.03;;;-4.76;74.74
74913;BME280;63878;55.624;37.304;2024-01-16T05:14:52;96605.28;;;-4.87;74.55
74913;BME280;63878;55.624;37.304;2024-01-16T05:24:53;96615.38;;;-4.75;74.87
74913;BME280;63878;55.624;37.304;2024-01-16T05:34:53;96612.66;;;-4.95;73.85
74913;BME280;63878;55.624;37.304;2024-01-16T05:44:54;96615.22;;;-5.06;75.01
74913;BME280;63878;55.624;37.304;2024-01-16T05:54:54;96603.50;;;-5.09;74.51
74913;BME280;63878;55.624;37.304;2024-01-16T06:04:55;96624.50;;;-4.94;74.80
74913;BME280;63878;55.624;37.304;2024-01-16T06:14:55;96651.19;;;-4.87;74.14
74913;BME280;63878;55.624;37.304;2024-01-16T06:24:56;96638.28;;;-4.97;74.03
74913;BME280;63878;55.624;37.304;2024-01-16T06:34:56;96648.56;;;-5.09;74.14
74913;BME280;63878;55.624;37.304;2024-01-16T06:44:57;96653.25;;;-4.92;75.13
74913;BME280;63878;55.624;37.304;2024-01-16T06:54:57;96633.78;;;-4.93;73.68
74913;BME280;63878;55.624;37.304;2024-01-16T07:04:57;96633.94;;;-5.07;73.44
74913;BME280;63878;55.624;37.304;2024-01-16T07:14:58;96643.28;;;-4.95;73.16
74913;BME280;63878;55.624;37.304;2024-01-16T07:24:58;96648.22;;;-4.70;73.68
74913;BME280;63878;55.624;37.304;2024-01-16T07:34:59;96644.47;;;-4.77;72.12
74913;BME280;63878;55.624;37.304;2024-01-16T07:45:01;96640.78;;;-4.84;71.92
74913;BME280;63878;55.624;37.304;2024-01-16T07:55:01;96631.03;;;-4.79;71.61
74913;BME280;63878;55.624;37.304;2024-01-16T08:05:02;96631.44;;;-4.96;71.23
74913;BME280;63878;55.624;37.304;2024-01-16T08:15:03;96634.13;;;-4.98;70.05
74913;BME280;63878;55.624;37.304;2024-01-16T08:25:04;96603.53;;;-4.87;69.58
74913;BME280;63878;55.624;37.304;2024-01-16T08:35:05;96599.81;;;-4.94;70.69
74913;BME280;63878;55.624;37.304;2024-01-16T08:45:06;96599.03;;;-4.83;69.33
74913;BME280;63878;55.624;37.304;2024-01-16T08:55:07;96589.03;;;-4.97;70.15
74913;BME280;63878;55.624;37.304;2024-01-16T09:05:08;96595.03;;;-4.98;69.51
74913;BME280;63878;55.624;37.304;2024-01-16T09:15:09;96577.19;;;-4.98;69.40
74913;BME280;63878;55.624;37.304;2024-01-16T09:25:10;96576.28;;;-4.86;69.18
74913;BME280;63878;55.624;37.304;2024-01-16T09:35:10;96587.19;;;-4.73;69.17
74913;BME280;63878;55.624;37.304;2024-01-16T09:45:13;96583.03;;;-4.63;68.69
74913;BME280;63878;55.624;37.304;2024-01-16T09:55:19;96569.81;;;-4.79;68.64
74913;BME280;63878;55.624;37.304;2024-01-16T10:05:19;96563.78;;;-4.89;69.33
74913;BME280;63878;55.624;37.304;2024-01-16T10:15:21;96559.59;;;-4.79;69.12
74913;BME280;63878;55.624;37.304;2024-01-16T10:25:22;96552.75;;;-4.90;69.55
74913;BME280;63878;55.624;37.304;2024-01-16T10:35:23;96545.56;;;-4.85;68.86
74913;BME280;63878;55.624;37.304;2024-01-16T10:45:23;96528.72;;;-4.98;70.10
74913;BME280;63878;55.624;37.304;2024-01-16T10:55:24;96528.00;;;-5.22;71.34
74913;BME280;63878;55.624;37.304;2024-01-16T11:05:25;96524.47;;;-5.09;70.88
74913;BME280;63878;55.624;37.304;2024-01-16T11:15:28;96517.50;;;-5.07;71.27
74913;BME280;63878;55.624;37.304;2024-01-16T11:25:32;96511.00;;;-5.11;70.54
74913;BME280;63878;55.624;37.304;2024-01-16T11:35:37;96512.72;;;-5.22;71.09
74913;BME280;63878;55.624;37.304;2024-01-16T12:06:02;96478.78;;;-5.12;70.21
74913;BME280;63878;55.624;37.304;2024-01-16T12:16:04;96472.03;;;-5.35;70.93
74913;BME280;63878;55.624;37.304;2024-01-16T12:26:05;96470.44;;;-5.36;70.99
74913;BME280;63878;55.624;37.304;2024-01-16T12:36:05;96471.00;;;-5.32;70.76
74913;BME280;63878;55.624;37.304;2024-01-16T12:46:06;96471.34;;;-5.15;70.29
74913;BME280;63878;55.624;37.304;2024-01-16T12:56:07;96453.75;;;-5.40;71.71
74913;BME280;63878;55.624;37.304;2024-01-16T13:06:07;96447.81;;;-5.07;70.24
74913;BME280;63878;55.624;37.304;2024-01-16T13:16:08;96453.41;;;-5.24;70.39
74913;BME280;63878;55.624;37.304;2024-01-16T13:26:08;96444.81;;;-5.45;71.47
74913;BME280;63878;55.624;37.304;2024-01-16T13:36:09;96451.31;;;-5.41;71.43
74913;BME280;63878;55.624;37.304;2024-01-16T13:46:10;96444.91;;;-5.47;71.68
74913;BME280;63878;55.624;37.304;2024-01-16T13:56:10;96451.97;;;-5.39;71.86
74913;BME280;63878;55.624;37.304;2024-01-16T14:06:11;96444.91;;;-5.47;71.85
74913;BME280;63878;55.624;37.304;2024-01-16T14:16:11;96446.66;;;-5.25;71.57
74913;BME280;63878;55.624;37.304;2024-01-16T14:26:12;96439.97;;;-5.37;72.25
74913;BME280;63878;55.624;37.304;2024-01-16T14:36:12;96442.25;;;-5.45;72.41
74913;BME280;63878;55.624;37.304;2024-01-16T14:46:13;96434.38;;;-5.31;72.42
74913;BME280;63878;55.624;37.304;2024-01-16T14:56:14;96426.75;;;-5.31;73.31
74913;BME280;63878;55.624;37.304;2024-01-16T15:06:14;96421.31;;;-5.16;72.43
74913;BME280;63878;55.624;37.304;2024-01-16T15:16:15;96424.22;;;-5.20;72.32
74913;BME280;63878;55.624;37.304;2024-01-16T15:26:16;96414.47;;;-5.15;72.65
74913;BME280;63878;55.624;37.304;2024-01-16T15:36:16;96432.53;;;-5.18;72.49
74913;BME280;63878;55.624;37.304;2024-01-16T15:46:17;96413.53;;;-5.25;72.82
74913;BME280;63878;55.624;37.304;2024-01-16T15:56:17;96401.03;;;-5.06;72.77
74913;BME280;63878;55.624;37.304;2024-01-16T16:06:18;96402.09;;;-5.31;73.04
74913;BME280;63878;55.624;37.304;2024-01-16T16:16:18;96396.75;;;-5.39;73.85
74913;BME280;63878;55.624;37.304;2024-01-16T16:26:39;96389.09;;;-5.28;73.39
74913;BME280;63878;55.624;37.304;2024-01-16T16:36:41;96388.19;;;-5.27;73.23
74913;BME280;63878;55.624;37.304;2024-01-16T16:46:42;96385.84;;;-5.30;73.33
74913;BME280;63878;55.624;37.304;2024-01-16T16:56:42;96387.25;;;-5.26;72.52
74913;BME280;63878;55.624;37.304;2024-01-16T17:06:43;96376.81;;;-5.23;72.93
74913;BME280;63878;55.624;37.304;2024-01-16T17:16:44;96370.09;;;-5.24;72.05
74913;BME280;63878;55.624;37.304;2024-01-16T17:26:45;96374.47;;;-5.15;71.90
74913;BME280;63878;55.624;37.304;2024-01-16T17:36:45;96375.78;;;-5.31;72.86
74913;BME280;63878;55.624;37.304;2024-01-16T17:46:46;96376.47;;;-5.29;73.18
74913;BME280;63878;55.624;37.304;2024-01-16T17:56:47;96371.84;;;-5.35;73.69
74913;BME280;63878;55.624;37.304;2024-01-16T18:06:47;96371.72;;;-5.34;72.68
74913;BME280;63878;55.624;37.304;2024-01-16T18:16:52;96381.91;;;-5.34;72.96
74913;BME280;63878;55.624;37.304;2024-01-16T18:26:53;96380.28;;;-5.35;73.35
74913;BME280;63878;55.624;37.304;2024-01-16T18:36:55;96398.13;;;-5.46;74.04
74913;BME280;63878;55.624;37.304;2024-01-16T18:46:56;96399.06;;;-5.58;74.14
74913;BME280;63878;55.624;37.304;2024-01-16T18:56:57;96401.38;;;-5.44;73.35
74913;BME280;63878;55.624;37.304;2024-01-16T19:06:57;96409.97;;;-5.45;74.10
74913;BME280;63878;55.624;37.304;2024-01-16T19:16:58;96431.34;;;-5.58;74.40
74913;BME280;63878;55.624;37.304;2024-01-16T19:26:59;96440.25;;;-5.64;75.49
74913;BME280;63878;55.624;37.304;2024-01-16T19:36:59;96448.72;;;-5.63;75.08
74913;BME280;63878;55.624;37.304;2024-01-16T19:47:00;96472.50;;;-4.10;72.67
74913;BME280;63878;55.624;37.304;2024-01-16T19:57:01;96488.22;;;-2.61;76.68
74913;BME280;63878;55.624;37.304;2024-01-16T20:07:01;96496.97;;;-5.27;71.88
74913;BME280;63878;55.624;37.304;2024-01-16T20:17:02;96510.31;;;-5.69;72.85
74913;BME280;63878;55.624;37.304;2024-01-16T20:27:04;96519.47;;;-5.90;73.20
74913;BME280;63878;55.624;37.304;2024-01-16T20:37:05;96523.75;;;-5.91;73.27
74913;BME280;63878;55.624;37.304;2024-01-16T20:47:06;96530.69;;;-5.69;72.17
74913;BME280;63878;55.624;37.304;2024-01-16T20:57:08;96554.75;;;-5.97;72.49
74913;BME280;63878;55.624;37.304;2024-01-16T21:07:09;96550.28;;;-6.06;73.38
74913;BME280;63878;55.624;37.304;2024-01-16T21:17:10;96565.22;;;-6.01;73.52
74913;BME280;63878;55.624;37.304;2024-01-16T21:27:10;96587.75;;;-6.31;72.26
74913;BME280;63878;55.624;37.304;2024-01-16T21:37:11;96583.31;;;-6.65;69.79
74913;BME280;63878;55.624;37.304;2024-01-16T21:47:11;96610.97;;;-6.86;67.55
74913;BME280;63878;55.624;37.304;2024-01-16T21:57:12;96631.91;;;-7.07;67.64
74913;BME280;63878;55.624;37.304;2024-01-16T22:07:12;96656.25;;;-7.30;65.39
74913;BME280;63878;55.624;37.304;2024-01-16T22:17:13;96684.63;;;-7.23;64.06
74913;BME280;63878;55.624;37.304;2024-01-16T22:27:14;96693.69;;;-7.46;65.88
74913;BME280;63878;55.624;37.304;2024-01-16T22:37:14;96708.03;;;-7.45;66.10
74913;BME280;63878;55.624;37.304;2024-01-16T22:47:15;96711.84;;;-7.52;66.74
74913;BME280;63878;55.624;37.304;2024-01-16T22:57:15;96727.13;;;-7.66;67.33
74913;BME280;63878;55.624;37.304;2024-01-16T23:07:16;96735.38;;;-7.62;66.75
74913;BME280;63878;55.624;37.304;2024-01-16T23:17:17;96742.91;;;-7.75;65.19
74913;BME280;63878;55.624;37.304;2024-01-16T23:27:17;96755.00;;;-7.78;63.46
74913;BME280;63878;55.624;37.304;2024-01-16T23:37:17;96773.91;;;-7.70;62.65
74913;BME280;63878;55.624;37.304;2024-01-16T23:47:18;96782.72;;;-8.17;63.87
74913;BME280;63878;55.624;37.304;2024-01-16T23:57:18;96780.03;;;-8.00;63.08
